Time;durP1;ratioP1;P1;durP2;ratioP2;P2;SDS_P1;SDS_P2;PMS_P1;PMS_P2;Temp;Humidity;BMP_temperature;BMP_pressure;BME280_temperature;BME280_humidity;BME280_pressure;Samples;Min_cycle;Max_cycle;Signal;HPM_P1;HPM_P2
2023/10/24 00:01:11;;;;;;;4.05;1.70;;;11.60;99.90;;;;;;5018453;28;20034;-75
2023/10/24 00:03:37;;;;;;;5.03;2.28;;;11.60;99.90;;;;;;5039020;28;20136;-73
2023/10/24 00:06:03;;;;;;;3.85;1.60;;;11.60;99.90;;;;;;5023001;28;20052;-72
2023/10/24 00:08:29;;;;;;;5.78;2.63;;;11.60;99.90;;;;;;5013104;28;20025;-72
2023/10/24 00:11:05;;;;;;;3.22;2.00;;;11.60;99.90;;;;;;5009486;28;20060;-72
2023/10/24 00:13:31;;;;;;;5.35;2.17;;;11.60;99.90;;;;;;5029559;28;20033;-73
2023/10/24 00:15:57;;;;;;;4.18;2.28;;;11.70;99.90;;;;;;5016953;28;20505;-75
2023/10/24 00:18:25;;;;;;;4.97;2.20;;;11.70;99.90;;;;;;5011231;28;20506;-73
2023/10/24 00:20:50;;;;;;;5.15;2.67;;;11.70;99.90;;;;;;5021123;28;20049;-73
2023/10/24 00:23:16;;;;;;;5.75;2.72;;;11.70;99.90;;;;;;5022985;28;20041;-73
2023/10/24 00:25:42;;;;;;;4.25;2.42;;;11.80;99.90;;;;;;5015676;28;20041;-72
2023/10/24 00:28:07;;;;;;;8.60;3.42;;;11.80;99.90;;;;;;5039760;28;20037;-73
2023/10/24 00:30:33;;;;;;;6.07;2.67;;;11.80;99.90;;;;;;5037945;28;20026;-73
2023/10/24 00:32:58;;;;;;;7.07;3.55;;;11.70;99.90;;;;;;5016665;28;20057;-76
2023/10/24 00:35:24;;;;;;;10.38;3.80;;;11.80;99.90;;;;;;5016119;28;20666;-72
2023/10/24 00:37:50;;;;;;;7.13;3.55;;;11.80;99.90;;;;;;5020717;28;20049;-75
2023/10/24 00:40:18;;;;;;;8.20;3.78;;;11.70;99.90;;;;;;5018890;28;20032;-71
2023/10/24 00:42:44;;;;;;;6.45;4.50;;;11.80;99.90;;;;;;5014580;28;20033;-74
2023/10/24 00:45:10;;;;;;;6.43;4.13;;;11.80;99.90;;;;;;5018166;28;20029;-73
2023/10/24 00:47:37;;;;;;;8.55;4.90;;;11.80;99.90;;;;;;5026372;28;20032;-74
2023/10/24 00:50:03;;;;;;;12.35;5.38;;;11.80;99.90;;;;;;5019469;28;20037;-73
2023/10/24 00:52:30;;;;;;;8.60;5.30;;;11.80;99.90;;;;;;5015860;28;20033;-73
2023/10/24 00:54:56;;;;;;;10.68;5.57;;;11.80;99.90;;;;;;5029022;28;20125;-74
2023/10/24 00:57:22;;;;;;;8.52;4.97;;;11.80;99.90;;;;;;5011981;28;20055;-73
2023/10/24 00:59:49;;;;;;;9.80;5.95;;;11.80;99.90;;;;;;5036122;28;20029;-72
2023/10/24 01:02:16;;;;;;;9.07;5.65;;;11.80;99.90;;;;;;5011663;28;20103;-73
2023/10/24 01:04:42;;;;;;;11.05;5.72;;;11.90;99.90;;;;;;5010505;28;20061;-74
2023/10/24 01:07:07;;;;;;;14.23;6.15;;;11.90;99.90;;;;;;5019216;28;20447;-73
2023/10/24 01:09:33;;;;;;;12.75;6.30;;;11.80;99.90;;;;;;5014066;28;20033;-74
2023/10/24 01:11:59;;;;;;;13.18;7.28;;;11.80;99.90;;;;;;5018064;28;20037;-73
2023/10/24 01:14:25;;;;;;;18.23;6.53;;;11.80;99.90;;;;;;5032848;28;20036;-73
2023/10/24 01:16:51;;;;;;;14.30;7.10;;;11.80;99.90;;;;;;5019621;28;20502;-73
2023/10/24 01:19:17;;;;;;;14.35;6.57;;;11.90;99.90;;;;;;5011689;28;20044;-73
2023/10/24 01:21:44;;;;;;;15.63;6.60;;;11.80;99.90;;;;;;5027773;28;20040;-73
2023/10/24 01:24:14;;;;;;;21.63;7.65;;;11.90;99.90;;;;;;5015335;28;20113;-72
2023/10/24 01:26:41;;;;;;;15.20;6.93;;;11.90;99.90;;;;;;5024019;28;20058;-73
2023/10/24 01:29:06;;;;;;;13.68;6.60;;;11.90;99.90;;;;;;5023616;28;20398;-76
2023/10/24 01:31:32;;;;;;;15.88;7.20;;;11.90;99.90;;;;;;5016107;28;20033;-76
2023/10/24 01:33:58;;;;;;;22.50;7.80;;;11.90;99.90;;;;;;5016800;28;20498;-77
2023/10/24 01:36:23;;;;;;;16.48;7.03;;;11.90;99.90;;;;;;5020334;28;20101;-76
2023/10/24 01:38:49;;;;;;;18.17;7.55;;;11.90;99.90;;;;;;5014398;28;20069;-78
2023/10/24 01:41:14;;;;;;;12.75;6.75;;;11.90;99.90;;;;;;5014709;28;20025;-75
2023/10/24 01:43:40;;;;;;;14.80;7.47;;;11.90;99.90;;;;;;5017886;28;20063;-74
2023/10/24 01:46:05;;;;;;;17.40;7.10;;;11.90;99.90;;;;;;5037116;28;20069;-76
2023/10/24 01:48:31;;;;;;;15.95;6.80;;;11.90;99.90;;;;;;5016314;28;21480;-76
2023/10/24 01:50:57;;;;;;;15.90;6.82;;;11.90;99.90;;;;;;5037737;28;20039;-75
2023/10/24 01:53:22;;;;;;;16.45;7.43;;;11.80;99.90;;;;;;5019085;28;20095;-74
2023/10/24 01:55:48;;;;;;;15.82;6.70;;;11.90;99.90;;;;;;5018435;28;20057;-76
2023/10/24 01:58:14;;;;;;;20.80;6.65;;;11.90;99.90;;;;;;5015116;28;20036;-77
2023/10/24 02:00:39;;;;;;;17.33;6.93;;;11.90;99.90;;;;;;5010420;28;20113;-76
2023/10/24 02:03:05;;;;;;;13.15;6.28;;;11.90;99.90;;;;;;5016715;28;20037;-77
2023/10/24 02:05:30;;;;;;;17.45;7.25;;;11.80;99.90;;;;;;5011446;28;20041;-77
2023/10/24 02:07:56;;;;;;;13.75;6.88;;;11.90;99.90;;;;;;5015731;28;20037;-77
2023/10/24 02:10:22;;;;;;;12.82;6.68;;;11.80;99.90;;;;;;5015455;28;20032;-75
2023/10/24 02:12:47;;;;;;;12.93;5.95;;;11.90;99.90;;;;;;5019034;28;20380;-75
2023/10/24 02:15:13;;;;;;;15.07;6.78;;;11.90;99.90;;;;;;5015844;28;20030;-77
2023/10/24 02:17:41;;;;;;;12.85;6.68;;;11.90;99.90;;;;;;5004721;28;20471;-78
2023/10/24 02:20:08;;;;;;;12.57;7.03;;;11.90;99.90;;;;;;5016082;28;20478;-77
2023/10/24 02:22:34;;;;;;;13.20;6.30;;;11.90;99.90;;;;;;5032977;28;20399;-77
2023/10/24 02:24:59;;;;;;;11.52;6.18;;;11.80;99.90;;;;;;5019467;28;20041;-78
2023/10/24 02:27:25;;;;;;;13.05;6.05;;;11.80;99.90;;;;;;5012505;28;20563;-77
2023/10/24 02:29:51;;;;;;;14.73;6.35;;;11.80;99.90;;;;;;5010530;28;20038;-77
2023/10/24 02:32:17;;;;;;;17.63;6.43;;;11.80;99.90;;;;;;5014907;28;20104;-78
2023/10/24 02:34:46;;;;;;;14.77;6.53;;;11.80;99.90;;;;;;5015461;28;20033;-75
2023/10/24 02:37:12;;;;;;;12.20;5.43;;;11.80;99.90;;;;;;5022626;28;20045;-77
2023/10/24 02:39:52;;;;;;;;;;;11.80;99.90;;;;;;4983044;28;20535;-77
2023/10/24 02:42:18;;;;;;;12.43;6.00;;;11.80;99.90;;;;;;5020733;28;20031;-77
2023/10/24 02:44:48;;;;;;;14.98;5.57;;;11.80;99.90;;;;;;5014425;28;20037;-75
2023/10/24 02:47:14;;;;;;;11.60;5.70;;;11.80;99.90;;;;;;5012373;28;20039;-77
2023/10/24 02:49:39;;;;;;;12.90;5.78;;;11.80;99.90;;;;;;5009581;28;20025;-74
2023/10/24 02:52:05;;;;;;;11.45;6.07;;;11.70;99.90;;;;;;5014450;28;20083;-75
2023/10/24 02:54:30;;;;;;;18.90;6.15;;;11.70;99.90;;;;;;5019064;28;20021;-76
2023/10/24 02:56:56;;;;;;;13.75;5.20;;;11.80;99.90;;;;;;5013674;28;20089;-75
2023/10/24 02:59:21;;;;;;;11.45;5.32;;;11.70;99.90;;;;;;5016641;28;20040;-76
2023/10/24 03:01:47;;;;;;;15.70;5.20;;;11.80;99.90;;;;;;5014073;28;20076;-77
2023/10/24 03:04:13;;;;;;;11.70;5.75;;;11.70;99.90;;;;;;5010824;28;20060;-75
2023/10/24 03:06:38;;;;;;;7.75;4.70;;;11.70;99.90;;;;;;5011911;28;20053;-75
2023/10/24 03:09:04;;;;;;;10.48;5.68;;;11.70;99.90;;;;;;5015903;28;20486;-77
2023/10/24 03:11:29;;;;;;;11.07;5.32;;;11.70;99.90;;;;;;5018789;28;20037;-77
2023/10/24 03:13:55;;;;;;;14.73;5.57;;;11.70;99.90;;;;;;5014442;28;20022;-76
2023/10/24 03:16:22;;;;;;;13.35;5.68;;;11.70;99.90;;;;;;5032874;28;20439;-74
2023/10/24 03:18:47;;;;;;;15.80;6.32;;;11.70;99.90;;;;;;5031678;28;20037;-76
2023/10/24 03:21:13;;;;;;;17.55;7.45;;;11.70;99.90;;;;;;5015826;28;20040;-73
2023/10/24 03:23:44;;;;;;;17.20;6.50;;;11.70;99.90;;;;;;5008808;28;20033;-77
2023/10/24 03:26:10;;;;;;;17.40;7.07;;;11.60;99.90;;;;;;5012748;28;20037;-75
2023/10/24 03:28:36;;;;;;;16.10;7.65;;;11.60;99.90;;;;;;5018263;28;20037;-76
2023/10/24 03:31:07;;;;;;;18.13;7.68;;;11.60;99.90;;;;;;5015329;28;20033;-77
2023/10/24 03:33:33;;;;;;;18.85;8.02;;;11.70;99.90;;;;;;5008072;28;20033;-75
2023/10/24 03:35:59;;;;;;;19.92;8.52;;;11.60;99.90;;;;;;5019608;28;20025;-77
2023/10/24 03:38:27;;;;;;;15.35;7.32;;;11.60;99.90;;;;;;5037669;28;20026;-75
2023/10/24 03:40:53;;;;;;;16.15;7.57;;;11.60;99.90;;;;;;5015960;28;20122;-75
2023/10/24 03:43:20;;;;;;;21.75;7.38;;;11.50;99.90;;;;;;5036227;28;20040;-75
2023/10/24 03:45:46;;;;;;;21.88;8.57;;;11.60;99.90;;;;;;5013962;28;20136;-77
2023/10/24 03:48:12;;;;;;;18.05;7.28;;;11.60;99.90;;;;;;5018009;28;20155;-78
2023/10/24 03:50:38;;;;;;;17.65;8.23;;;11.60;99.90;;;;;;5010177;28;20040;-77
2023/10/24 03:53:04;;;;;;;13.80;6.80;;;11.60;99.90;;;;;;5012042;28;20184;-76
2023/10/24 03:55:31;;;;;;;17.23;7.75;;;11.60;99.90;;;;;;5029587;28;20562;-77
2023/10/24 03:57:59;;;;;;;13.82;6.97;;;11.60;99.90;;;;;;5014585;28;20041;-77
2023/10/24 04:00:25;;;;;;;14.25;6.53;;;11.50;99.90;;;;;;5015008;28;20044;-76
2023/10/24 04:02:54;;;;;;;13.98;7.22;;;11.50;99.90;;;;;;5014319;28;20663;-76
2023/10/24 04:05:19;;;;;;;18.02;8.38;;;11.50;99.90;;;;;;5018034;28;20051;-76
2023/10/24 04:07:45;;;;;;;15.25;7.25;;;11.50;99.90;;;;;;5012492;28;20041;-76
2023/10/24 04:10:14;;;;;;;14.80;6.90;;;11.50;99.90;;;;;;5020003;28;20052;-75
2023/10/24 04:12:41;;;;;;;11.43;4.97;;;11.50;99.90;;;;;;5014962;28;20044;-75
2023/10/24 04:15:08;;;;;;;16.08;7.25;;;11.50;99.90;;;;;;5023516;28;20025;-77
2023/10/24 04:17:33;;;;;;;16.52;7.55;;;11.50;99.90;;;;;;5016904;28;20120;-73
2023/10/24 04:19:59;;;;;;;13.98;7.00;;;11.50;99.90;;;;;;5019566;28;20163;-76
2023/10/24 04:22:25;;;;;;;12.75;6.70;;;11.50;99.90;;;;;;5040236;28;20120;-74
2023/10/24 04:24:53;;;;;;;14.65;7.05;;;11.50;99.90;;;;;;5033031;28;20037;-75
2023/10/24 04:27:19;;;;;;;14.57;6.90;;;11.50;99.90;;;;;;5011526;28;20489;-75
2023/10/24 04:29:46;;;;;;;17.38;7.43;;;11.40;99.90;;;;;;5012139;28;20041;-77
2023/10/24 04:32:12;;;;;;;14.50;6.80;;;11.40;99.90;;;;;;5014732;28;20022;-76
2023/10/24 04:34:38;;;;;;;13.43;6.75;;;11.40;99.90;;;;;;5019382;28;20034;-77
2023/10/24 04:37:04;;;;;;;16.27;6.50;;;11.50;99.90;;;;;;5011035;28;20133;-77
2023/10/24 04:39:30;;;;;;;16.73;7.80;;;11.40;99.90;;;;;;5015550;28;20041;-76
2023/10/24 04:41:55;;;;;;;24.83;7.88;;;11.40;99.90;;;;;;5016124;28;20037;-75
2023/10/24 04:44:21;;;;;;;15.23;6.80;;;11.40;99.90;;;;;;5018223;28;20157;-75
2023/10/24 04:46:47;;;;;;;15.75;6.85;;;11.40;99.90;;;;;;5015149;28;20495;-75
2023/10/24 04:49:13;;;;;;;14.82;7.15;;;11.40;99.90;;;;;;5034250;28;20030;-77
2023/10/24 04:51:39;;;;;;;13.35;6.68;;;11.40;99.90;;;;;;5036910;28;20064;-76
2023/10/24 04:54:05;;;;;;;16.73;6.80;;;11.40;99.90;;;;;;5013069;28;20344;-74
2023/10/24 04:56:30;;;;;;;14.65;7.22;;;11.40;99.90;;;;;;5008981;28;20433;-76
2023/10/24 04:58:56;;;;;;;15.55;7.35;;;11.40;99.90;;;;;;5003188;28;20814;-74
2023/10/24 05:01:22;;;;;;;15.35;7.97;;;11.40;99.90;;;;;;5027786;28;20025;-73
2023/10/24 05:03:47;;;;;;;14.73;7.95;;;11.40;99.90;;;;;;5023953;28;20140;-73
2023/10/24 05:06:13;;;;;;;14.02;6.93;;;11.40;99.90;;;;;;5024926;28;20376;-75
2023/10/24 05:08:39;;;;;;;15.05;7.00;;;11.40;99.90;;;;;;5023819;28;20064;-75
2023/10/24 05:11:05;;;;;;;13.75;6.97;;;11.40;99.90;;;;;;4999817;28;20479;-74
2023/10/24 05:13:31;;;;;;;14.30;7.00;;;11.40;99.90;;;;;;5007004;28;20033;-74
2023/10/24 05:15:56;;;;;;;15.52;7.32;;;11.30;99.90;;;;;;5006489;28;20025;-73
2023/10/24 05:18:22;;;;;;;12.85;6.90;;;11.30;99.90;;;;;;5007175;28;20038;-75
2023/10/24 05:20:47;;;;;;;13.98;6.50;;;11.30;99.90;;;;;;5019055;28;20037;-74
2023/10/24 05:23:13;;;;;;;19.88;8.02;;;11.30;99.90;;;;;;5021868;28;20380;-75
2023/10/24 05:25:41;;;;;;;17.63;7.10;;;11.30;99.90;;;;;;5007406;28;20402;-73
2023/10/24 05:28:07;;;;;;;18.70;7.38;;;11.30;99.90;;;;;;5010422;28;20037;-74
2023/10/24 05:30:32;;;;;;;14.38;7.32;;;11.30;99.90;;;;;;5005170;28;20040;-72
2023/10/24 05:32:58;;;;;;;14.40;7.03;;;11.30;99.90;;;;;;5020524;28;20488;-73
2023/10/24 05:35:24;;;;;;;15.77;7.25;;;11.30;99.90;;;;;;5020542;28;20140;-74
2023/10/24 05:37:50;;;;;;;12.75;6.90;;;11.30;99.90;;;;;;5009438;28;20037;-73
2023/10/24 05:40:15;;;;;;;14.93;7.13;;;11.30;99.90;;;;;;5024517;28;20030;-72
2023/10/24 05:42:41;;;;;;;14.32;6.60;;;11.20;99.90;;;;;;5025138;28;20048;-75
2023/10/24 05:45:07;;;;;;;14.13;6.75;;;11.30;99.90;;;;;;5004719;28;20026;-73
2023/10/24 05:47:33;;;;;;;14.93;7.30;;;11.20;99.90;;;;;;5015408;28;20454;-74
2023/10/24 05:49:59;;;;;;;14.18;7.20;;;11.20;99.90;;;;;;5009856;28;20042;-73
2023/10/24 05:52:24;;;;;;;18.85;7.45;;;11.20;99.90;;;;;;5001121;28;20049;-74
2023/10/24 05:54:50;;;;;;;12.43;6.80;;;11.30;99.90;;;;;;5004335;28;20613;-75
2023/10/24 05:57:16;;;;;;;14.10;6.57;;;11.20;99.90;;;;;;5005129;28;20137;-72
2023/10/24 05:59:41;;;;;;;11.73;6.28;;;11.20;99.90;;;;;;5004952;28;20087;-73
2023/10/24 06:02:07;;;;;;;14.38;6.60;;;11.20;99.90;;;;;;5027888;28;20036;-73
2023/10/24 06:04:34;;;;;;;11.40;5.95;;;11.20;99.90;;;;;;5008684;28;20065;-73
2023/10/24 06:07:00;;;;;;;11.57;6.07;;;11.20;99.90;;;;;;5009258;28;20060;-76
2023/10/24 06:09:25;;;;;;;13.35;6.63;;;11.20;99.90;;;;;;5023660;28;20072;-74
2023/10/24 06:11:51;;;;;;;10.25;5.68;;;11.20;99.90;;;;;;5005253;28;20101;-73
2023/10/24 06:14:17;;;;;;;11.85;5.95;;;11.20;99.90;;;;;;5007083;28;20064;-71
2023/10/24 06:16:43;;;;;;;12.00;6.38;;;11.20;99.90;;;;;;5009358;28;20402;-72
2023/10/24 06:19:08;;;;;;;12.15;5.88;;;11.20;99.90;;;;;;5007663;28;20748;-72
2023/10/24 06:21:34;;;;;;;10.85;5.93;;;11.10;99.90;;;;;;5022331;28;20038;-75
2023/10/24 06:23:59;;;;;;;11.40;5.68;;;11.10;99.90;;;;;;5006079;28;20061;-73
2023/10/24 06:26:25;;;;;;;11.55;5.55;;;11.20;99.90;;;;;;5019905;28;20128;-77
2023/10/24 06:28:51;;;;;;;10.32;5.90;;;11.10;99.90;;;;;;5007660;28;20033;-75
2023/10/24 06:31:17;;;;;;;10.90;5.80;;;11.10;99.90;;;;;;5007587;28;20044;-75
2023/10/24 06:33:43;;;;;;;9.07;5.10;;;11.10;99.90;;;;;;5000640;28;20091;-74
2023/10/24 06:36:09;;;;;;;11.15;6.00;;;11.10;99.90;;;;;;5006381;28;20034;-74
2023/10/24 06:38:34;;;;;;;9.48;5.18;;;11.10;99.90;;;;;;5007082;28;20038;-73
2023/10/24 06:41:00;;;;;;;13.75;5.78;;;11.10;99.90;;;;;;5002173;28;20025;-74
2023/10/24 06:43:26;;;;;;;14.13;6.90;;;11.10;99.90;;;;;;5024306;28;20039;-74
2023/10/24 06:45:53;;;;;;;8.95;4.65;;;11.10;99.90;;;;;;5023897;28;20082;-74
2023/10/24 06:48:19;;;;;;;9.55;5.18;;;11.10;99.90;;;;;;5005654;28;20524;-73
2023/10/24 06:50:45;;;;;;;11.68;5.55;;;11.10;99.90;;;;;;5007853;28;20037;-73
2023/10/24 06:53:11;;;;;;;10.80;5.20;;;11.10;99.90;;;;;;5008079;28;20120;-76
2023/10/24 06:55:37;;;;;;;9.68;5.05;;;11.10;99.90;;;;;;5007707;28;20052;-72
2023/10/24 06:58:04;;;;;;;12.35;5.25;;;11.10;99.90;;;;;;5005205;28;20022;-72
2023/10/24 07:00:30;;;;;;;12.18;5.40;;;11.10;99.90;;;;;;5004368;28;20030;-73
2023/10/24 07:02:56;;;;;;;11.05;5.53;;;11.10;99.90;;;;;;5025327;28;20079;-76
2023/10/24 07:05:22;;;;;;;12.10;5.18;;;11.10;99.90;;;;;;5010123;28;20029;-77
2023/10/24 07:07:48;;;;;;;12.07;5.75;;;11.10;99.90;;;;;;5023316;28;20022;-75
2023/10/24 07:10:14;;;;;;;13.82;5.22;;;11.10;99.90;;;;;;5020306;28;20041;-72
2023/10/24 07:12:40;;;;;;;11.20;5.82;;;11.10;99.90;;;;;;5004830;28;20455;-75
2023/10/24 07:15:07;;;;;;;10.88;5.97;;;11.10;99.90;;;;;;5008597;28;20120;-75
2023/10/24 07:17:33;;;;;;;9.73;5.53;;;11.10;99.90;;;;;;5018923;28;20080;-75
2023/10/24 07:20:01;;;;;;;12.75;5.90;;;11.10;99.90;;;;;;5018859;28;20059;-73
2023/10/24 07:22:28;;;;;;;9.90;5.93;;;11.10;99.90;;;;;;5005901;28;20033;-74
2023/10/24 07:24:54;;;;;;;14.32;6.85;;;11.10;99.90;;;;;;5001422;28;20026;-72
2023/10/24 07:27:20;;;;;;;12.50;6.47;;;11.20;99.90;;;;;;5002991;28;20030;-73
2023/10/24 07:29:45;;;;;;;13.05;6.40;;;11.20;99.90;;;;;;5027939;28;20046;-72
2023/10/24 07:32:12;;;;;;;11.18;6.18;;;11.20;99.90;;;;;;5009848;28;20084;-74
2023/10/24 07:34:41;;;;;;;11.15;5.93;;;11.20;99.90;;;;;;5026713;28;20168;-75
2023/10/24 07:37:07;;;;;;;12.60;6.80;;;11.20;99.90;;;;;;5008895;28;20491;-76
2023/10/24 07:39:33;;;;;;;10.05;6.05;;;11.30;99.90;;;;;;5007403;28;20499;-74
2023/10/24 07:41:58;;;;;;;12.02;6.13;;;11.30;99.90;;;;;;5004630;28;20155;-76
2023/10/24 07:44:24;;;;;;;15.02;6.65;;;11.30;99.90;;;;;;5009118;28;20033;-75
2023/10/24 07:46:49;;;;;;;14.57;6.60;;;11.40;99.90;;;;;;5007269;28;20056;-75
2023/10/24 07:49:15;;;;;;;11.30;6.57;;;11.40;99.90;;;;;;5008831;28;20171;-75
2023/10/24 07:51:40;;;;;;;12.30;6.50;;;11.40;99.90;;;;;;4999339;28;20034;-74
2023/10/24 07:54:06;;;;;;;10.35;5.95;;;11.50;99.90;;;;;;5025289;28;20438;-74
2023/10/24 07:56:32;;;;;;;12.35;6.75;;;11.50;99.90;;;;;;5008497;28;20044;-75
2023/10/24 07:58:57;;;;;;;12.77;6.32;;;11.50;99.90;;;;;;5001530;28;20043;-74
2023/10/24 08:01:23;;;;;;;12.70;6.65;;;11.50;99.90;;;;;;5011620;28;20052;-74
2023/10/24 08:03:48;;;;;;;11.48;6.65;;;11.50;99.90;;;;;;5006765;28;20128;-76
2023/10/24 08:06:14;;;;;;;12.70;7.15;;;11.50;99.90;;;;;;5010879;28;20041;-75
2023/10/24 08:08:39;;;;;;;12.25;6.63;;;11.50;99.90;;;;;;5009916;28;20037;-76
2023/10/24 08:11:05;;;;;;;14.57;6.95;;;11.50;99.90;;;;;;5012411;28;20046;-72
2023/10/24 08:13:31;;;;;;;13.13;6.93;;;11.60;99.90;;;;;;5007483;28;20034;-73
2023/10/24 08:15:58;;;;;;;13.88;6.82;;;11.60;99.90;;;;;;5026754;28;20037;-74
2023/10/24 08:18:24;;;;;;;17.75;7.15;;;11.70;99.90;;;;;;5000990;28;20036;-75
2023/10/24 08:20:50;;;;;;;14.40;7.13;;;11.60;99.90;;;;;;5008215;28;20041;-75
2023/10/24 08:23:16;;;;;;;15.05;6.22;;;11.70;99.90;;;;;;5033233;28;20037;-75
2023/10/24 08:25:42;;;;;;;11.05;6.40;;;11.70;99.90;;;;;;5011687;28;20041;-73
2023/10/24 08:28:07;;;;;;;12.45;6.32;;;11.70;99.90;;;;;;5033663;28;20034;-76
2023/10/24 08:30:33;;;;;;;17.70;7.30;;;11.70;99.90;;;;;;5009993;28;20040;-76
2023/10/24 08:32:59;;;;;;;17.20;6.97;;;11.80;99.90;;;;;;5015688;28;20344;-76
2023/10/24 08:35:24;;;;;;;11.68;6.78;;;11.80;99.90;;;;;;5011536;28;20091;-75
2023/10/24 08:37:50;;;;;;;12.25;6.22;;;11.80;99.90;;;;;;5004024;28;20025;-74
2023/10/24 08:40:16;;;;;;;14.48;7.03;;;11.90;99.90;;;;;;5014154;28;20029;-75
2023/10/24 08:42:42;;;;;;;11.20;6.03;;;12.00;99.90;;;;;;5026485;28;20060;-74
2023/10/24 08:45:09;;;;;;;12.95;6.78;;;12.10;99.90;;;;;;5015771;28;20033;-76
2023/10/24 08:47:36;;;;;;;15.68;6.95;;;12.10;99.90;;;;;;5012770;28;20049;-73
2023/10/24 08:50:02;;;;;;;10.80;5.88;;;12.10;99.90;;;;;;5035537;28;20140;-72
2023/10/24 08:52:30;;;;;;;12.23;6.15;;;12.10;99.90;;;;;;5015230;28;20033;-75
2023/10/24 08:54:57;;;;;;;10.95;5.90;;;12.20;99.90;;;;;;5008564;28;20108;-77
2023/10/24 08:57:27;;;;;;;11.25;5.85;;;12.20;99.90;;;;;;5015133;28;20029;-75
2023/10/24 08:59:55;;;;;;;12.32;5.75;;;12.20;99.90;;;;;;5011968;28;20052;-77
2023/10/24 09:02:21;;;;;;;11.50;5.53;;;12.20;99.90;;;;;;5012454;28;20041;-75
2023/10/24 09:04:51;;;;;;;9.52;5.25;;;12.20;99.90;;;;;;5009177;28;20651;-74
2023/10/24 09:07:16;;;;;;;10.88;6.03;;;12.20;99.90;;;;;;5015795;28;20068;-74
2023/10/24 09:09:42;;;;;;;9.18;5.63;;;12.20;99.90;;;;;;5011659;28;20049;-76
2023/10/24 09:12:14;;;;;;;8.25;5.13;;;12.20;99.90;;;;;;5015401;28;20485;-74
2023/10/24 09:14:44;;;;;;;8.50;4.53;;;12.30;99.90;;;;;;5013129;28;20506;-77
2023/10/24 09:17:12;;;;;;;8.02;4.90;;;12.30;99.90;;;;;;5010047;28;20030;-75
2023/10/24 09:19:40;;;;;;;8.13;5.00;;;12.30;99.90;;;;;;5029431;28;20065;-74
2023/10/24 09:22:05;;;;;;;8.63;4.57;;;12.30;99.90;;;;;;5015799;28;20033;-76
2023/10/24 09:24:31;;;;;;;13.27;5.18;;;12.40;99.90;;;;;;5012907;28;20049;-74
2023/10/24 09:26:57;;;;;;;8.93;4.35;;;12.40;99.90;;;;;;5012241;28;20080;-74
2023/10/24 09:29:29;;;;;;;6.38;3.70;;;12.40;99.90;;;;;;5011586;28;20091;-75
2023/10/24 09:31:58;;;;;;;6.18;3.65;;;12.40;99.90;;;;;;5009619;28;20045;-74
2023/10/24 09:34:26;;;;;;;9.65;4.35;;;12.50;99.90;;;;;;5005357;28;20033;-76
2023/10/24 09:36:52;;;;;;;7.78;3.95;;;12.60;99.90;;;;;;5011472;28;20099;-75
2023/10/24 09:39:18;;;;;;;7.95;3.75;;;12.60;99.90;;;;;;5010779;28;20037;-75
2023/10/24 09:41:45;;;;;;;6.75;3.53;;;12.60;99.90;;;;;;5010391;28;20044;-74
2023/10/24 09:44:11;;;;;;;6.88;3.38;;;12.70;99.90;;;;;;5007850;28;20033;-75
2023/10/24 09:46:38;;;;;;;6.30;3.58;;;12.70;99.90;;;;;;5007558;28;20742;-76
2023/10/24 09:49:05;;;;;;;5.15;3.22;;;12.80;99.90;;;;;;5010869;28;20773;-75
2023/10/24 09:51:37;;;;;;;5.95;3.35;;;12.80;99.90;;;;;;5010544;28;20042;-75
2023/10/24 09:54:05;;;;;;;6.50;3.15;;;12.80;99.90;;;;;;5008006;28;20057;-74
2023/10/24 09:56:32;;;;;;;7.20;3.53;;;12.80;99.90;;;;;;5011765;28;20072;-74
2023/10/24 09:58:58;;;;;;;7.32;3.28;;;12.80;99.90;;;;;;5010701;28;20041;-74
2023/10/24 10:01:27;;;;;;;6.38;3.10;;;12.80;99.90;;;;;;5006964;28;20029;-76
2023/10/24 10:03:56;;;;;;;5.28;3.05;;;12.80;99.90;;;;;;5028721;28;20405;-73
2023/10/24 10:06:25;;;;;;;7.10;3.28;;;12.80;99.90;;;;;;5007574;28;20048;-74
2023/10/24 10:08:54;;;;;;;6.50;3.47;;;12.80;99.90;;;;;;5026963;28;20686;-74
2023/10/24 10:11:22;;;;;;;9.48;3.72;;;12.80;99.90;;;;;;5010098;28;20492;-76
2023/10/24 10:14:00;;;;;;;5.38;2.85;;;12.80;99.90;;;;;;5009055;28;20036;-75
2023/10/24 10:16:51;;;;;;;6.47;3.28;;;12.90;99.90;;;;;;5010936;28;20045;-75
2023/10/24 10:19:22;;;;;;;6.32;3.58;;;12.80;99.90;;;;;;5009022;28;20021;-74
2023/10/24 10:22:06;;;;;;;8.52;3.97;;;12.70;99.90;;;;;;5025985;28;20104;-75
2023/10/24 10:24:34;;;;;;;9.48;3.70;;;12.70;99.90;;;;;;5006860;28;20040;-74
2023/10/24 10:27:35;;;;;;;7.97;4.13;;;12.70;99.90;;;;;;5007529;28;20487;-74
2023/10/24 10:30:26;;;;;;;9.77;4.30;;;12.70;99.90;;;;;;5010278;28;20503;-74
2023/10/24 10:33:10;;;;;;;;;;;12.70;99.90;;;;;;5008951;28;20052;-73
2023/10/24 10:35:57;;;;;;;7.25;4.18;;;12.70;99.90;;;;;;5010746;28;19957;-76
2023/10/24 10:38:23;;;;;;;7.55;4.35;;;12.70;99.90;;;;;;5013269;28;20060;-74
2023/10/24 10:40:49;;;;;;;8.40;4.55;;;12.60;99.90;;;;;;5008704;28;20151;-75
2023/10/24 10:43:30;;;;;;;7.93;4.82;;;12.60;99.90;;;;;;5029049;28;20029;-76
2023/10/24 10:46:29;;;;;;;9.45;5.43;;;12.70;99.90;;;;;;5008569;28;20566;-74
2023/10/24 10:49:03;;;;;;;9.57;4.93;;;12.60;99.90;;;;;;4981169;28;20049;-75
2023/10/24 10:51:31;;;;;;;12.75;4.88;;;12.60;99.90;;;;;;5012396;28;20044;-74
2023/10/24 10:54:17;;;;;;;10.63;5.75;;;12.60;99.90;;;;;;5024714;28;20415;-74
2023/10/24 10:56:45;;;;;;;7.50;4.93;;;12.60;99.90;;;;;;5007175;28;20042;-74
2023/10/24 10:59:47;;;;;;;8.40;4.80;;;12.70;99.90;;;;;;5029530;28;20045;-75
2023/10/24 11:02:50;;;;;;;9.73;4.82;;;12.70;99.90;;;;;;4979553;28;20837;-76
2023/10/24 11:05:37;;;;;;;8.27;4.68;;;12.70;99.90;;;;;;5005067;28;20063;-74
2023/10/24 11:08:04;;;;;;;8.80;4.65;;;12.70;99.90;;;;;;5028477;28;20796;-76
2023/10/24 11:10:52;;;;;;;12.88;4.75;;;12.70;99.90;;;;;;5009986;28;20049;-74
2023/10/24 11:13:39;;;;;;;10.60;5.15;;;12.70;99.90;;;;;;4998794;28;20037;-75
2023/10/24 11:16:07;;;;;;;7.80;4.60;;;12.70;99.90;;;;;;5010277;28;20033;-75
2023/10/24 11:18:34;;;;;;;7.72;4.18;;;12.70;99.90;;;;;;5003690;28;20113;-75
2023/10/24 11:21:02;;;;;;;7.75;4.13;;;12.70;99.90;;;;;;5010307;28;20057;-76
2023/10/24 11:23:28;;;;;;;6.95;4.20;;;12.60;99.90;;;;;;5007441;28;20083;-75
2023/10/24 11:25:56;;;;;;;8.20;3.95;;;12.70;99.90;;;;;;5007958;28;20041;-76
2023/10/24 11:28:24;;;;;;;7.55;4.10;;;12.70;99.90;;;;;;5012382;28;20044;-76
2023/10/24 11:30:51;;;;;;;6.50;3.80;;;12.70;99.90;;;;;;5010335;28;20518;-77
2023/10/24 11:33:17;;;;;;;10.73;4.43;;;12.80;99.90;;;;;;5004805;28;20042;-76
2023/10/24 11:35:44;;;;;;;7.78;3.92;;;12.70;99.90;;;;;;5007338;28;20470;-74
2023/10/24 11:38:10;;;;;;;5.65;2.95;;;12.70;99.90;;;;;;5009045;28;20372;-76
2023/10/24 11:40:35;;;;;;;6.13;2.95;;;12.70;99.90;;;;;;5006317;28;20068;-76
2023/10/24 11:43:08;;;;;;;4.43;2.67;;;12.60;99.90;;;;;;5021497;28;20052;-74
2023/10/24 11:45:37;;;;;;;8.45;2.10;;;12.60;99.90;;;;;;5002207;28;20034;-74
2023/10/24 11:48:04;;;;;;;3.78;1.90;;;12.60;99.90;;;;;;5029788;28;20057;-75
2023/10/24 11:51:00;;;;;;;4.18;1.83;;;12.50;99.90;;;;;;5004524;28;20460;-74
2023/10/24 11:53:26;;;;;;;4.38;1.88;;;12.40;99.90;;;;;;5012073;28;20033;-73
2023/10/24 11:55:52;;;;;;;2.55;1.70;;;12.30;99.90;;;;;;5009497;28;20029;-75
2023/10/24 11:58:20;;;;;;;3.80;1.63;;;12.30;99.90;;;;;;5016808;28;20439;-74
2023/10/24 12:00:45;;;;;;;2.15;1.55;;;12.20;99.90;;;;;;5010863;28;20034;-75
2023/10/24 12:03:11;;;;;;;3.05;1.60;;;12.10;99.90;;;;;;5027556;28;20056;-75
2023/10/24 12:05:38;;;;;;;5.28;1.95;;;12.10;99.90;;;;;;5014984;28;20033;-73
2023/10/24 12:08:04;;;;;;;2.53;1.80;;;12.10;99.90;;;;;;5015476;28;20030;-75
2023/10/24 12:10:33;;;;;;;3.92;1.50;;;12.00;99.90;;;;;;5016155;28;20413;-75
2023/10/24 12:13:03;;;;;;;2.05;1.50;;;12.00;99.90;;;;;;5012766;28;20091;-75
2023/10/24 12:15:30;;;;;;;2.75;1.60;;;11.90;99.90;;;;;;5014471;28;20068;-73
2023/10/24 12:18:00;;;;;;;2.20;1.52;;;11.90;99.90;;;;;;5012802;28;20034;-76
2023/10/24 12:20:25;;;;;;;3.27;2.00;;;11.90;99.90;;;;;;5028963;28;20025;-76
2023/10/24 12:22:51;;;;;;;3.15;1.92;;;11.80;99.90;;;;;;5012297;28;20276;-73
2023/10/24 12:25:17;;;;;;;4.70;1.88;;;11.80;99.90;;;;;;5014539;28;20026;-75
2023/10/24 12:27:45;;;;;;;2.80;1.77;;;11.80;99.90;;;;;;5009462;28;20395;-74
2023/10/24 12:30:13;;;;;;;5.78;2.10;;;11.80;99.90;;;;;;5029266;28;20087;-74
2023/10/24 12:32:38;;;;;;;4.18;1.40;;;11.90;99.90;;;;;;5011544;28;20537;-76
2023/10/24 12:35:06;;;;;;;3.58;1.88;;;11.80;99.90;;;;;;5028873;28;20033;-74
2023/10/24 12:37:33;;;;;;;6.05;2.08;;;11.80;99.90;;;;;;5011552;28;20037;-74
2023/10/24 12:39:58;;;;;;;4.43;2.00;;;11.80;99.90;;;;;;5013269;28;20757;-76
2023/10/24 12:42:24;;;;;;;2.50;1.48;;;11.80;99.90;;;;;;5012670;28;20117;-74